createdAt,value
2023-05-14T00:01:17.390Z,9.45
2023-05-14T00:03:44.792Z,13.38
2023-05-14T00:06:12.251Z,9.32
2023-05-14T00:08:39.493Z,9.50
2023-05-14T00:11:09.016Z,8.77
2023-05-14T00:13:36.923Z,9.35
2023-05-14T00:16:04.515Z,10.38
2023-05-14T00:18:32.068Z,8.40
2023-05-14T00:20:59.379Z,9.02
2023-05-14T00:23:26.744Z,9.48
2023-05-14T00:25:54.009Z,10.13
2023-05-14T00:28:21.764Z,8.80
2023-05-14T00:30:49.114Z,8.77
2023-05-14T00:33:16.544Z,9.07
2023-05-14T00:35:43.852Z,10.13
2023-05-14T00:38:16.880Z,8.25
2023-05-14T00:40:46.005Z,8.93
2023-05-14T00:43:13.348Z,8.07
2023-05-14T00:45:40.714Z,8.77
2023-05-14T00:48:08.210Z,8.60
2023-05-14T00:50:35.729Z,8.65
2023-05-14T00:53:03.091Z,9.63
2023-05-14T00:55:31.849Z,8.10
2023-05-14T00:58:00.063Z,8.48
2023-05-14T01:00:27.358Z,9.77
2023-05-14T01:02:54.788Z,8.77
2023-05-14T01:05:25.928Z,9.18
2023-05-14T01:08:09.684Z,9.88
2023-05-14T01:10:48.992Z,9.00
2023-05-14T01:13:41.273Z,7.80
2023-05-14T01:16:12.555Z,8.45
2023-05-14T01:18:43.668Z,8.77
2023-05-14T01:21:37.434Z,9.18
2023-05-14T01:24:05.044Z,9.15
2023-05-14T01:26:33.330Z,9.43
2023-05-14T01:29:22.381Z,8.43
2023-05-14T01:31:51.451Z,9.55
2023-05-14T01:34:23.551Z,8.27
2023-05-14T01:36:53.389Z,9.45
2023-05-14T01:39:21.408Z,8.77
2023-05-14T01:41:50.344Z,9.02
2023-05-14T01:44:18.642Z,8.50
2023-05-14T01:46:45.968Z,7.97
2023-05-14T01:49:13.330Z,7.30
2023-05-14T01:51:40.644Z,7.60
2023-05-14T01:54:07.910Z,7.63
2023-05-14T01:56:35.327Z,8.05
2023-05-14T01:59:02.593Z,8.18
2023-05-14T02:01:29.957Z,7.75
2023-05-14T02:03:57.344Z,7.90
2023-05-14T02:06:24.647Z,7.45
2023-05-14T02:08:51.932Z,8.40
2023-05-14T02:11:19.332Z,7.75
2023-05-14T02:13:46.572Z,8.50
2023-05-14T02:16:13.923Z,8.00
2023-05-14T02:18:41.263Z,9.10
2023-05-14T02:21:08.598Z,8.80
2023-05-14T02:23:41.589Z,7.95
2023-05-14T02:26:10.933Z,9.67
2023-05-14T02:28:38.307Z,8.35
2023-05-14T02:31:05.802Z,7.82
2023-05-14T02:33:33.205Z,7.80
2023-05-14T02:36:00.550Z,7.95
2023-05-14T02:38:27.848Z,8.05
2023-05-14T02:40:55.109Z,8.63
2023-05-14T02:43:22.375Z,7.28
2023-05-14T02:45:49.713Z,8.90
2023-05-14T02:48:16.994Z,7.20
2023-05-14T02:50:44.301Z,7.53
2023-05-14T02:53:11.870Z,7.82
2023-05-14T02:55:39.176Z,7.40
2023-05-14T02:58:06.450Z,7.38
2023-05-14T03:00:33.732Z,6.78
2023-05-14T03:03:01.750Z,6.97
2023-05-14T03:05:29.525Z,6.97
2023-05-14T03:07:56.772Z,6.88
2023-05-14T03:10:24.501Z,7.10
2023-05-14T03:12:52.003Z,8.63
2023-05-14T03:15:19.524Z,6.95
2023-05-14T03:17:46.826Z,7.68
2023-05-14T03:20:14.162Z,7.55
2023-05-14T03:22:41.675Z,6.90
2023-05-14T03:25:09.287Z,7.53
2023-05-14T03:27:36.842Z,7.18
2023-05-14T03:30:04.886Z,6.53
2023-05-14T03:32:32.614Z,6.80
2023-05-14T03:35:00.036Z,7.32
2023-05-14T03:37:27.365Z,7.20
2023-05-14T03:39:54.681Z,6.57
2023-05-14T03:42:21.949Z,6.75
2023-05-14T03:44:49.222Z,6.38
2023-05-14T03:47:16.491Z,6.28
2023-05-14T03:49:43.812Z,6.70
2023-05-14T03:52:11.140Z,8.02
2023-05-14T03:54:38.650Z,6.47
2023-05-14T03:57:05.961Z,6.78
2023-05-14T03:59:33.430Z,6.65
2023-05-14T04:02:00.685Z,5.82
2023-05-14T04:04:27.953Z,6.57
2023-05-14T04:06:55.307Z,6.18
2023-05-14T04:09:23.394Z,6.90
2023-05-14T04:11:51.076Z,6.53
2023-05-14T04:14:18.344Z,6.43
2023-05-14T04:16:45.661Z,6.50
2023-05-14T04:19:13.079Z,5.93
2023-05-14T04:21:40.456Z,6.15
2023-05-14T04:24:08.092Z,6.03
2023-05-14T04:26:35.379Z,5.75
2023-05-14T04:29:03.457Z,5.40
2023-05-14T04:31:31.673Z,6.75
2023-05-14T04:33:59.135Z,6.20
2023-05-14T04:36:26.634Z,6.25
2023-05-14T04:38:53.882Z,6.40
2023-05-14T04:41:21.192Z,6.45
2023-05-14T04:43:50.839Z,6.35
2023-05-14T04:46:18.191Z,6.38
2023-05-14T04:48:45.540Z,7.93
2023-05-14T04:51:12.890Z,6.28
2023-05-14T04:53:40.238Z,6.07
2023-05-14T04:56:07.629Z,6.10
2023-05-14T04:58:35.311Z,6.25
2023-05-14T05:01:05.864Z,5.93
2023-05-14T05:03:33.256Z,7.85
2023-05-14T05:06:00.674Z,5.95
2023-05-14T05:08:27.985Z,6.00
2023-05-14T05:10:55.332Z,6.20
2023-05-14T05:13:22.663Z,6.80
2023-05-14T05:15:50.006Z,6.63
2023-05-14T05:18:17.323Z,6.72
2023-05-14T05:20:44.612Z,6.25
2023-05-14T05:23:11.934Z,6.22
2023-05-14T05:25:39.185Z,6.88
2023-05-14T05:28:06.518Z,6.43
2023-05-14T05:30:34.159Z,6.25
2023-05-14T05:33:01.939Z,6.25
2023-05-14T05:35:29.660Z,6.68
2023-05-14T05:38:00.454Z,6.22
2023-05-14T05:40:29.089Z,6.53
2023-05-14T05:42:56.419Z,6.53
2023-05-14T05:45:23.708Z,6.75
2023-05-14T05:47:51.063Z,6.57
2023-05-14T05:50:19.896Z,6.60
2023-05-14T05:52:47.508Z,7.32
2023-05-14T05:55:14.773Z,6.75
2023-05-14T05:57:42.097Z,7.13
2023-05-14T06:00:13.326Z,6.60
2023-05-14T06:02:41.733Z,8.10
2023-05-14T06:05:10.106Z,7.85
2023-05-14T06:07:37.688Z,8.13
2023-05-14T06:10:05.518Z,7.45
2023-05-14T06:12:33.250Z,7.00
2023-05-14T06:15:00.646Z,7.78
2023-05-14T06:17:28.093Z,7.60
2023-05-14T06:19:55.468Z,8.82
2023-05-14T06:22:22.883Z,8.07
2023-05-14T06:24:50.169Z,8.05
2023-05-14T06:27:17.523Z,9.40
2023-05-14T06:29:44.827Z,8.30
2023-05-14T06:32:15.418Z,9.88
2023-05-14T06:34:43.557Z,8.93
2023-05-14T06:37:11.647Z,8.27
2023-05-14T06:39:44.148Z,7.88
2023-05-14T06:42:11.376Z,8.45
2023-05-14T06:44:38.738Z,8.35
2023-05-14T06:47:08.513Z,8.18
2023-05-14T06:49:36.363Z,8.13
2023-05-14T06:52:04.001Z,9.88
2023-05-14T06:54:31.429Z,7.93
2023-05-14T06:56:58.732Z,8.35
2023-05-14T06:59:26.409Z,8.98
2023-05-14T07:01:53.765Z,8.23
2023-05-14T07:04:21.193Z,8.60
2023-05-14T07:06:48.537Z,9.25
2023-05-14T07:09:16.848Z,12.02
2023-05-14T07:11:44.099Z,8.85
2023-05-14T07:14:11.450Z,9.50
2023-05-14T07:16:38.724Z,10.68
2023-05-14T07:19:06.019Z,10.35
2023-05-14T07:21:33.318Z,11.35
2023-05-14T07:24:00.647Z,11.73
2023-05-14T07:26:27.959Z,13.35
2023-05-14T07:28:55.365Z,12.32
2023-05-14T07:31:22.754Z,11.35
2023-05-14T07:33:50.088Z,10.07
2023-05-14T07:36:17.419Z,11.25
2023-05-14T07:38:44.713Z,9.02
2023-05-14T07:41:12.290Z,8.88
2023-05-14T07:43:40.604Z,8.68
2023-05-14T07:46:07.980Z,8.90
2023-05-14T07:48:35.380Z,9.60
2023-05-14T07:51:02.791Z,8.48
2023-05-14T07:53:30.144Z,9.77
2023-05-14T07:55:57.874Z,10.27
2023-05-14T07:58:26.741Z,9.95
2023-05-14T08:00:54.050Z,10.20
2023-05-14T08:03:21.628Z,9.02
2023-05-14T08:05:49.029Z,11.45
2023-05-14T08:08:17.100Z,9.38
2023-05-14T08:10:44.495Z,10.43
2023-05-14T08:13:11.879Z,9.70
2023-05-14T08:15:39.151Z,10.20
2023-05-14T08:18:06.581Z,9.40
2023-05-14T08:20:33.939Z,9.02
2023-05-14T08:23:01.552Z,11.55
2023-05-14T08:25:28.861Z,9.02
2023-05-14T08:27:56.138Z,9.77
2023-05-14T08:30:23.701Z,10.48
2023-05-14T08:32:51.434Z,12.13
2023-05-14T08:35:19.168Z,10.98
2023-05-14T08:37:46.544Z,10.25
2023-05-14T08:40:14.175Z,9.65
2023-05-14T08:42:41.910Z,10.27
2023-05-14T08:45:20.229Z,8.35
2023-05-14T08:47:52.827Z,8.93
2023-05-14T08:50:23.005Z,9.07
2023-05-14T08:52:51.950Z,9.32
2023-05-14T08:55:19.913Z,8.65
2023-05-14T08:57:47.305Z,9.18
2023-05-14T09:00:18.596Z,8.23
2023-05-14T09:02:46.580Z,8.77
2023-05-14T09:05:14.883Z,9.70
2023-05-14T09:07:42.248Z,9.68
2023-05-14T09:10:10.186Z,7.95
2023-05-14T09:12:37.663Z,8.32
2023-05-14T09:15:05.528Z,8.20
2023-05-14T09:17:33.476Z,9.13
2023-05-14T09:20:01.389Z,8.60
2023-05-14T09:22:33.478Z,8.65
2023-05-14T09:25:06.681Z,8.70
2023-05-14T09:27:35.312Z,7.22
2023-05-14T09:30:10.809Z,7.57
2023-05-14T09:32:45.912Z,8.35
2023-05-14T09:35:18.527Z,7.55
2023-05-14T09:37:48.427Z,8.23
2023-05-14T09:40:16.844Z,9.30
2023-05-14T09:42:44.606Z,9.27
2023-05-14T09:45:12.852Z,9.15
2023-05-14T09:47:40.753Z,7.28
2023-05-14T09:50:09.158Z,7.90
2023-05-14T09:52:37.309Z,8.50
2023-05-14T09:55:04.953Z,7.28
2023-05-14T09:57:32.291Z,6.93
2023-05-14T09:59:59.609Z,6.50
2023-05-14T10:02:37.507Z,6.88
2023-05-14T10:05:06.907Z,9.20
2023-05-14T10:07:45.523Z,7.32
2023-05-14T10:10:18.606Z,7.65
2023-05-14T10:12:57.150Z,6.85
2023-05-14T10:15:45.667Z,6.43
2023-05-14T10:18:22.994Z,7.03
2023-05-14T10:21:05.761Z,10.30
2023-05-14T10:23:37.845Z,9.38
2023-05-14T10:26:06.632Z,11.73
2023-05-14T10:28:34.272Z,13.55
2023-05-14T10:31:01.849Z,15.13
2023-05-14T10:33:29.246Z,13.50
2023-05-14T10:36:00.622Z,17.73
2023-05-14T10:38:38.060Z,12.88
2023-05-14T10:41:17.998Z,19.27
2023-05-14T10:43:45.874Z,16.13
2023-05-14T10:46:14.641Z,14.85
2023-05-14T10:48:44.103Z,16.73
2023-05-14T10:51:12.565Z,15.15
2023-05-14T10:53:42.778Z,13.95
2023-05-14T10:56:12.671Z,13.25
2023-05-14T10:58:45.099Z,15.90
2023-05-14T11:01:13.748Z,15.18
2023-05-14T11:03:45.181Z,14.73
2023-05-14T11:06:15.200Z,13.90
2023-05-14T11:08:42.986Z,12.88
2023-05-14T11:11:11.077Z,11.65
2023-05-14T11:13:38.812Z,13.88
2023-05-14T11:18:38.697Z,11.68
2023-05-14T11:21:06.243Z,10.80
2023-05-14T11:23:33.570Z,13.55
2023-05-14T11:26:00.941Z,13.60
2023-05-14T11:28:28.783Z,14.80
2023-05-14T11:30:56.186Z,11.27
2023-05-14T11:33:23.479Z,13.23
2023-05-14T11:35:52.000Z,13.30
2023-05-14T11:38:21.227Z,13.10
2023-05-14T11:40:59.553Z,15.25
2023-05-14T11:43:29.321Z,15.75
2023-05-14T11:45:57.123Z,14.63
2023-05-14T11:48:24.796Z,12.40
2023-05-14T11:50:53.501Z,16.13
2023-05-14T11:53:26.761Z,14.00
2023-05-14T11:56:00.102Z,17.33
2023-05-14T11:58:27.425Z,16.60
2023-05-14T12:00:57.018Z,16.60
2023-05-14T12:03:29.683Z,15.60
2023-05-14T12:06:02.004Z,13.98
2023-05-14T12:08:31.481Z,14.93
2023-05-14T12:11:00.460Z,11.80
2023-05-14T12:13:31.546Z,13.60
2023-05-14T12:16:02.027Z,14.32
2023-05-14T12:18:31.564Z,14.57
2023-05-14T12:21:08.211Z,16.63
2023-05-14T12:23:38.458Z,13.30
2023-05-14T12:26:08.803Z,13.73
2023-05-14T12:28:38.954Z,12.98
2023-05-14T12:31:06.717Z,13.38
2023-05-14T12:33:34.169Z,14.80
2023-05-14T12:36:09.998Z,19.00
2023-05-14T12:38:41.629Z,17.70
2023-05-14T12:41:08.887Z,16.98
2023-05-14T12:43:36.138Z,15.45
2023-05-14T12:46:03.458Z,15.75
2023-05-14T12:48:30.704Z,13.93
2023-05-14T12:50:57.995Z,12.43
2023-05-14T12:53:25.331Z,16.27
2023-05-14T12:55:52.749Z,15.30
2023-05-14T12:58:19.985Z,15.77
2023-05-14T13:00:47.262Z,15.65
2023-05-14T13:03:14.572Z,17.92
2023-05-14T13:05:42.090Z,18.33
2023-05-14T13:08:10.339Z,13.60
2023-05-14T13:10:37.626Z,17.92
2023-05-14T13:13:04.957Z,15.88
2023-05-14T13:15:33.641Z,17.65
2023-05-14T13:18:01.052Z,15.05
2023-05-14T13:20:29.515Z,16.27
2023-05-14T13:22:57.117Z,20.23
2023-05-14T13:25:24.782Z,13.18
2023-05-14T13:27:52.250Z,14.05
2023-05-14T13:30:20.089Z,14.27
2023-05-14T13:32:47.669Z,14.93
2023-05-14T13:35:15.474Z,15.40
2023-05-14T13:37:44.225Z,15.68
2023-05-14T13:40:12.377Z,14.02
2023-05-14T13:42:39.903Z,13.57
2023-05-14T13:45:08.470Z,13.35
2023-05-14T13:47:36.002Z,12.63
2023-05-14T13:50:03.466Z,13.25
2023-05-14T13:52:30.822Z,13.38
2023-05-14T13:54:58.140Z,12.68
2023-05-14T13:57:26.089Z,13.05
2023-05-14T13:59:53.402Z,12.77
2023-05-14T14:02:20.876Z,12.48
2023-05-14T14:04:49.407Z,12.40
2023-05-14T14:07:16.780Z,13.88
2023-05-14T14:09:45.102Z,11.85
2023-05-14T14:12:31.231Z,15.40
2023-05-14T14:15:19.021Z,12.35
2023-05-14T14:18:06.977Z,13.40
2023-05-14T14:20:34.853Z,11.20
2023-05-14T14:23:02.182Z,12.05
2023-05-14T14:25:29.480Z,10.05
2023-05-14T14:28:15.515Z,11.27
2023-05-14T14:30:43.918Z,10.70
2023-05-14T14:33:11.534Z,9.77
2023-05-14T14:35:38.873Z,10.38
2023-05-14T14:38:06.305Z,8.18
2023-05-14T14:40:34.724Z,9.48
2023-05-14T14:43:02.312Z,8.40
2023-05-14T14:45:29.647Z,8.38
2023-05-14T14:48:26.161Z,9.35
2023-05-14T14:50:54.043Z,9.82
2023-05-14T14:53:22.037Z,7.30
2023-05-14T14:55:50.043Z,8.48
2023-05-14T14:58:18.739Z,7.68
2023-05-14T15:00:46.494Z,8.80
2023-05-14T15:03:15.044Z,8.88
2023-05-14T15:05:42.798Z,8.43
2023-05-14T15:08:10.484Z,10.82
2023-05-14T15:10:38.347Z,9.68
2023-05-14T15:13:06.689Z,9.95
2023-05-14T15:15:35.488Z,8.95
2023-05-14T15:18:03.745Z,10.13
2023-05-14T15:20:31.479Z,11.32
2023-05-14T15:22:58.873Z,7.80
2023-05-14T15:25:27.299Z,9.15
2023-05-14T15:27:54.669Z,8.40
2023-05-14T15:30:40.774Z,7.57
2023-05-14T15:33:08.777Z,10.00
2023-05-14T15:35:36.588Z,7.75
2023-05-14T15:38:04.330Z,7.97
2023-05-14T15:40:33.118Z,11.55
2023-05-14T15:43:00.513Z,9.57
2023-05-14T15:45:28.162Z,8.20
2023-05-14T15:47:55.635Z,9.40
2023-05-14T15:50:23.350Z,7.05
2023-05-14T15:52:50.954Z,6.78
2023-05-14T15:55:18.301Z,7.75
2023-05-14T15:57:45.588Z,8.90
2023-05-14T16:00:13.490Z,5.90
2023-05-14T16:02:41.318Z,8.25
2023-05-14T16:05:09.080Z,11.25
2023-05-14T16:07:37.287Z,6.68
2023-05-14T16:10:06.060Z,8.02
2023-05-14T16:12:33.921Z,5.90
2023-05-14T16:15:01.292Z,8.98
2023-05-14T16:17:32.853Z,6.32
2023-05-14T16:20:01.111Z,5.20
2023-05-14T16:22:29.402Z,6.20
2023-05-14T16:24:56.688Z,4.78
2023-05-14T16:27:24.046Z,4.18
2023-05-14T16:29:51.413Z,4.93
2023-05-14T16:32:18.847Z,4.57
2023-05-14T16:34:49.738Z,5.50
2023-05-14T16:37:19.212Z,5.13
2023-05-14T16:39:46.790Z,4.47
2023-05-14T16:42:14.312Z,5.25
2023-05-14T16:44:41.597Z,5.25
2023-05-14T16:47:08.937Z,5.47
2023-05-14T16:49:36.445Z,5.20
2023-05-14T16:52:03.856Z,8.50
2023-05-14T16:54:31.217Z,5.22
2023-05-14T16:56:58.463Z,9.93
2023-05-14T16:59:25.753Z,6.03
2023-05-14T17:01:53.437Z,6.60
2023-05-14T17:04:21.261Z,7.15
2023-05-14T17:06:48.667Z,6.53
2023-05-14T17:09:16.682Z,6.72
2023-05-14T17:11:44.026Z,7.65
2023-05-14T17:14:11.432Z,5.57
2023-05-14T17:16:40.520Z,7.53
2023-05-14T17:19:07.982Z,6.88
2023-05-14T17:21:35.295Z,6.80
2023-05-14T17:24:02.589Z,7.22
2023-05-14T17:26:30.190Z,6.57
2023-05-14T17:28:57.577Z,6.03
2023-05-14T17:31:24.981Z,4.30
2023-05-14T17:33:52.292Z,3.47
2023-05-14T17:36:19.733Z,6.03
2023-05-14T17:38:48.147Z,4.80
2023-05-14T17:41:15.469Z,6.15
2023-05-14T17:43:42.744Z,4.70
2023-05-14T17:46:10.091Z,5.38
2023-05-14T17:48:37.444Z,5.15
2023-05-14T17:51:04.775Z,5.85
2023-05-14T17:53:32.197Z,5.95
2023-05-14T17:55:59.615Z,6.47
2023-05-14T17:58:27.472Z,6.20
2023-05-14T18:00:54.961Z,5.47
2023-05-14T18:03:22.388Z,3.90
2023-05-14T18:05:50.488Z,6.20
2023-05-14T18:08:17.824Z,5.22
2023-05-14T18:10:45.099Z,5.82
2023-05-14T18:13:12.332Z,3.85
2023-05-14T18:15:39.636Z,5.00
2023-05-14T18:18:07.234Z,5.03
2023-05-14T18:20:35.603Z,5.47
2023-05-14T18:23:03.350Z,5.95
2023-05-14T18:25:30.720Z,6.13
2023-05-14T18:27:58.331Z,5.13
2023-05-14T18:30:25.603Z,4.50
2023-05-14T18:32:53.098Z,4.35
2023-05-14T18:35:20.922Z,5.97
2023-05-14T18:37:48.273Z,4.68
2023-05-14T18:40:17.049Z,4.38
2023-05-14T18:42:45.904Z,4.55
2023-05-14T18:45:13.309Z,3.90
2023-05-14T18:47:40.955Z,6.85
2023-05-14T18:50:09.008Z,7.15
2023-05-14T18:52:36.446Z,12.38
2023-05-14T18:55:03.996Z,7.07
2023-05-14T18:57:33.033Z,6.40
2023-05-14T19:00:02.070Z,4.93
2023-05-14T19:02:29.829Z,8.15
2023-05-14T19:04:57.286Z,3.95
2023-05-14T19:07:24.644Z,10.90
2023-05-14T19:09:52.359Z,6.00
2023-05-14T19:12:19.634Z,5.95
2023-05-14T19:14:46.906Z,12.68
2023-05-14T19:17:14.326Z,9.27
2023-05-14T19:19:41.704Z,6.15
2023-05-14T19:22:09.259Z,7.53
2023-05-14T19:24:37.782Z,6.63
2023-05-14T19:27:05.310Z,6.68
2023-05-14T19:29:33.785Z,6.70
2023-05-14T19:32:01.152Z,5.03
2023-05-14T19:34:28.508Z,5.68
2023-05-14T19:36:56.008Z,5.70
2023-05-14T19:39:23.294Z,5.28
2023-05-14T19:41:50.537Z,6.82
2023-05-14T19:44:17.801Z,3.85
2023-05-14T19:46:45.287Z,5.85
2023-05-14T19:49:12.628Z,6.57
2023-05-14T19:51:39.916Z,6.03
2023-05-14T19:54:07.451Z,4.82
2023-05-14T19:56:34.745Z,5.72
2023-05-14T19:59:01.991Z,5.25
2023-05-14T20:01:29.569Z,4.38
2023-05-14T20:03:56.834Z,5.22
2023-05-14T20:06:24.127Z,6.50
2023-05-14T20:08:51.615Z,5.80
2023-05-14T20:11:19.540Z,4.60
2023-05-14T20:13:46.822Z,4.22
2023-05-14T20:16:16.856Z,4.35
2023-05-14T20:18:44.663Z,5.72
2023-05-14T20:21:12.108Z,3.97
2023-05-14T20:23:39.455Z,4.60
2023-05-14T20:26:06.825Z,5.35
2023-05-14T20:28:34.292Z,4.80
2023-05-14T20:31:03.954Z,5.70
2023-05-14T20:33:31.384Z,4.18
2023-05-14T20:35:58.731Z,6.22
2023-05-14T20:38:29.214Z,5.70
2023-05-14T20:40:56.694Z,4.85
2023-05-14T20:43:23.923Z,4.38
2023-05-14T20:45:51.217Z,4.85
2023-05-14T20:48:21.166Z,3.83
2023-05-14T20:50:48.496Z,4.57
2023-05-14T20:53:15.801Z,4.93
2023-05-14T20:55:44.664Z,4.55
2023-05-14T20:58:11.880Z,4.32
2023-05-14T21:00:39.315Z,4.05
2023-05-14T21:03:06.849Z,3.83
2023-05-14T21:05:34.756Z,3.90
2023-05-14T21:08:02.023Z,5.20
2023-05-14T21:10:29.373Z,4.97
2023-05-14T21:12:56.686Z,4.38
2023-05-14T21:15:24.243Z,4.18
2023-05-14T21:17:51.718Z,4.40
2023-05-14T21:20:19.200Z,4.85
2023-05-14T21:22:46.475Z,5.75
2023-05-14T21:25:13.815Z,4.72
2023-05-14T21:27:41.184Z,4.30
2023-05-14T21:30:09.125Z,4.97
2023-05-14T21:32:36.468Z,4.88
2023-05-14T21:35:03.946Z,4.95
2023-05-14T21:37:31.287Z,4.68
2023-05-14T21:39:58.550Z,4.50
2023-05-14T21:42:25.854Z,4.65
2023-05-14T21:44:53.140Z,5.47
2023-05-14T21:47:21.117Z,4.60
2023-05-14T21:49:48.474Z,4.22
2023-05-14T21:52:16.277Z,5.22
2023-05-14T21:54:43.708Z,5.00
2023-05-14T21:57:11.105Z,5.18
2023-05-14T21:59:38.382Z,5.40
2023-05-14T22:02:07.354Z,5.50
2023-05-14T22:04:35.593Z,5.38
2023-05-14T22:07:03.324Z,5.07
2023-05-14T22:09:30.684Z,5.97
2023-05-14T22:11:58.513Z,5.22
2023-05-14T22:14:27.280Z,4.88
2023-05-14T22:16:54.729Z,4.70
2023-05-14T22:19:22.367Z,5.18
2023-05-14T22:21:49.644Z,5.45
2023-05-14T22:24:16.967Z,5.60
2023-05-14T22:26:44.643Z,5.25
2023-05-14T22:29:11.954Z,5.75
2023-05-14T22:31:39.432Z,5.25
2023-05-14T22:34:06.765Z,5.40
2023-05-14T22:36:34.209Z,5.50
2023-05-14T22:39:01.475Z,5.32
2023-05-14T22:41:28.813Z,5.95
2023-05-14T22:43:56.054Z,5.38
2023-05-14T22:46:23.403Z,5.85
2023-05-14T22:48:50.790Z,5.28
2023-05-14T22:51:18.100Z,6.68
2023-05-14T22:53:45.586Z,5.68
2023-05-14T22:56:13.055Z,5.38
2023-05-14T22:58:40.530Z,5.70
2023-05-14T23:01:08.009Z,6.13
2023-05-14T23:03:35.575Z,5.68
2023-05-14T23:06:02.852Z,6.75
2023-05-14T23:08:30.379Z,6.32
2023-05-14T23:10:57.735Z,5.53
2023-05-14T23:13:25.149Z,5.85
2023-05-14T23:15:52.430Z,5.63
2023-05-14T23:18:19.851Z,5.38
2023-05-14T23:20:47.240Z,5.35
2023-05-14T23:23:14.483Z,5.40
2023-05-14T23:25:41.954Z,5.18
2023-05-14T23:28:09.662Z,5.13
2023-05-14T23:30:36.921Z,4.90
2023-05-14T23:33:04.274Z,5.43
2023-05-14T23:35:31.651Z,5.30
2023-05-14T23:37:59.054Z,5.57
2023-05-14T23:40:26.309Z,5.10
2023-05-14T23:42:53.641Z,5.10
2023-05-14T23:45:21.032Z,5.07
2023-05-14T23:47:48.419Z,5.30
2023-05-14T23:50:15.736Z,5.25
2023-05-14T23:52:43.009Z,5.40
2023-05-14T23:55:10.699Z,4.85
2023-05-14T23:57:38.033Z,5.03
